OOCL Hamburg — VRZK9 — position and weather

sailwx.info

Track history (hours):
 
Tides and Currents Weather Stations Pressure Air Temp Water Temp Dewpoint Dewpoint Depression Visibility Wind Speed Wind Dir Waves Ship Positions

OOCL Hamburg

Last reported at 2014-Jul-31 01:30 UTC. Time now 2014-Jul-31 15:40 UTC.
Position N 31°33' E 031°46'.

Length 323 m; beam 42.8 m; draft 14.5 m.

Type: Cargo ship. MMSI: 477702000.

Date/timePositionNaut miles runAvg speedWind from/ knotsBaromVisibWave heightAir tempDewpointWater temp
2014-Jul-31 01:30N 31°33' E 031°46'3 2.9
2014-Jul-31 00:27N 31°36' E 031°47'1 1.1
2014-Jul-30 23:30N 31°36' E 031°46'4 4.2
2014-Jul-30 22:32N 31°39' E 031°49'8 7.7
2014-Jul-30 21:29N 31°44' E 031°57'4 4.5
2014-Jul-30 20:32N 31°43' E 032°02'6 6.4
2014-Jul-30 19:33N 31°39' E 032°07'7 6.6
2014-Jul-30 18:33N 31°34' E 032°12'6 6.0
2014-Jul-30 17:33N 31°32' E 032°19'6 5.8
2014-Jul-30 16:33N 31°31' E 032°26'6 6.4
2014-Jul-30 15:33N 31°25' E 032°23'6 5.8
2014-Jul-30 14:33N 31°20' E 032°22'6 6.3
2014-Jul-30 13:33N 31°13' E 032°21'9 8.5
2014-Jul-30 12:33N 31°05' E 032°19'84 6.0
2014-Jul-29 22:33N 29°42' E 032°34'  
Track history (hours):
 
Tides and Currents Weather Stations Pressure Air Temp Water Temp Dewpoint Dewpoint Depression Visibility Wind Speed Wind Dir Waves Ship Positions

OOCL Hamburg

Last reported at 2014-Jul-31 01:30 UTC. Time now 2014-Jul-31 15:40 UTC.
Position N 31°33' E 031°46'.

Length 323 m; beam 42.8 m; draft 14.5 m.

Type: Cargo ship. MMSI: 477702000.

Date/timePositionNaut miles runAvg speedWind from/ knotsBaromVisibWave heightAir tempDewpointWater temp
2014-Jul-31 01:30N 31°33' E 031°46'3 2.9
2014-Jul-31 00:27N 31°36' E 031°47'1 1.1
2014-Jul-30 23:30N 31°36' E 031°46'4 4.2
2014-Jul-30 22:32N 31°39' E 031°49'8 7.7
2014-Jul-30 21:29N 31°44' E 031°57'4 4.5
2014-Jul-30 20:32N 31°43' E 032°02'6 6.4
2014-Jul-30 19:33N 31°39' E 032°07'7 6.6
2014-Jul-30 18:33N 31°34' E 032°12'6 6.0
2014-Jul-30 17:33N 31°32' E 032°19'6 5.8
2014-Jul-30 16:33N 31°31' E 032°26'6 6.4
2014-Jul-30 15:33N 31°25' E 032°23'6 5.8
2014-Jul-30 14:33N 31°20' E 032°22'6 6.3
2014-Jul-30 13:33N 31°13' E 032°21'9 8.5
2014-Jul-30 12:33N 31°05' E 032°19'84 6.0
2014-Jul-29 22:33N 29°42' E 032°34'  

Dump ship's entire track history